sensor_id;sensor_type;location;lat;lon;timestamp;P1;durP1;ratioP1;P2;durP2;ratioP2
38567;SDS011;24338;48.280;10.970;2022-12-18T00:01:44;72.75;;;33.35;;
38567;SDS011;24338;48.280;10.970;2022-12-18T00:04:04;55.92;;;27.92;;
38567;SDS011;24338;48.280;10.970;2022-12-18T00:06:33;62.90;;;28.23;;
38567;SDS011;24338;48.280;10.970;2022-12-18T00:09:02;59.05;;;26.38;;
38567;SDS011;24338;48.280;10.970;2022-12-18T00:11:30;58.60;;;26.80;;
38567;SDS011;24338;48.280;10.970;2022-12-18T00:13:57;56.85;;;28.00;;
38567;SDS011;24338;48.280;10.970;2022-12-18T00:16:25;53.92;;;27.10;;
38567;SDS011;24338;48.280;10.970;2022-12-18T00:18:55;53.42;;;25.77;;
38567;SDS011;24338;48.280;10.970;2022-12-18T00:21:27;46.30;;;23.30;;
38567;SDS011;24338;48.280;10.970;2022-12-18T00:23:55;43.92;;;22.63;;
38567;SDS011;24338;48.280;10.970;2022-12-18T00:26:23;46.08;;;21.05;;
38567;SDS011;24338;48.280;10.970;2022-12-18T00:28:51;50.83;;;24.30;;
38567;SDS011;24338;48.280;10.970;2022-12-18T00:31:20;50.03;;;23.05;;
38567;SDS011;24338;48.280;10.970;2022-12-18T00:33:49;49.83;;;21.88;;
38567;SDS011;24338;48.280;10.970;2022-12-18T00:36:21;43.08;;;21.13;;
38567;SDS011;24338;48.280;10.970;2022-12-18T00:38:49;46.05;;;21.30;;
38567;SDS011;24338;48.280;10.970;2022-12-18T00:41:17;46.47;;;20.63;;
38567;SDS011;24338;48.280;10.970;2022-12-18T00:44:05;42.03;;;21.60;;
38567;SDS011;24338;48.280;10.970;2022-12-18T00:46:33;40.97;;;21.23;;
38567;SDS011;24338;48.280;10.970;2022-12-18T00:49:00;47.28;;;20.75;;
38567;SDS011;24338;48.280;10.970;2022-12-18T00:51:27;41.65;;;21.20;;
38567;SDS011;24338;48.280;10.970;2022-12-18T00:53:54;39.65;;;19.67;;
38567;SDS011;24338;48.280;10.970;2022-12-18T00:56:21;43.05;;;21.08;;
38567;SDS011;24338;48.280;10.970;2022-12-18T00:58:48;38.67;;;20.08;;
38567;SDS011;24338;48.280;10.970;2022-12-18T01:01:16;39.25;;;19.30;;
38567;SDS011;24338;48.280;10.970;2022-12-18T01:03:43;44.15;;;19.95;;
38567;SDS011;24338;48.280;10.970;2022-12-18T01:06:13;39.97;;;20.27;;
38567;SDS011;24338;48.280;10.970;2022-12-18T01:08:41;42.65;;;21.52;;
38567;SDS011;24338;48.280;10.970;2022-12-18T01:11:09;51.15;;;26.92;;
38567;SDS011;24338;48.280;10.970;2022-12-18T01:13:41;51.92;;;23.75;;
38567;SDS011;24338;48.280;10.970;2022-12-18T01:16:10;63.80;;;28.52;;
38567;SDS011;24338;48.280;10.970;2022-12-18T01:18:39;54.42;;;26.23;;
38567;SDS011;24338;48.280;10.970;2022-12-18T01:21:07;61.03;;;25.17;;
38567;SDS011;24338;48.280;10.970;2022-12-18T01:23:35;56.22;;;26.67;;
38567;SDS011;24338;48.280;10.970;2022-12-18T01:26:10;63.33;;;29.17;;
38567;SDS011;24338;48.280;10.970;2022-12-18T01:28:39;58.03;;;28.27;;
38567;SDS011;24338;48.280;10.970;2022-12-18T01:31:49;58.17;;;29.42;;
38567;SDS011;24338;48.280;10.970;2022-12-18T01:33:57;54.15;;;24.55;;
38567;SDS011;24338;48.280;10.970;2022-12-18T01:36:29;58.85;;;26.80;;
38567;SDS011;24338;48.280;10.970;2022-12-18T01:39:01;57.33;;;26.20;;
38567;SDS011;24338;48.280;10.970;2022-12-18T01:41:47;59.03;;;26.15;;
38567;SDS011;24338;48.280;10.970;2022-12-18T01:50:13;76.53;;;29.67;;
38567;SDS011;24338;48.280;10.970;2022-12-18T01:52:46;71.65;;;30.52;;
38567;SDS011;24338;48.280;10.970;2022-12-18T01:55:46;65.60;;;29.40;;
38567;SDS011;24338;48.280;10.970;2022-12-18T01:58:16;71.20;;;28.65;;
38567;SDS011;24338;48.280;10.970;2022-12-18T02:00:45;78.03;;;31.50;;
38567;SDS011;24338;48.280;10.970;2022-12-18T02:03:13;77.75;;;32.53;;
38567;SDS011;24338;48.280;10.970;2022-12-18T02:08:26;81.07;;;29.73;;
38567;SDS011;24338;48.280;10.970;2022-12-18T02:13:53;72.78;;;29.88;;
38567;SDS011;24338;48.280;10.970;2022-12-18T02:27:38;67.15;;;27.85;;
38567;SDS011;24338;48.280;10.970;2022-12-18T02:30:06;68.35;;;26.80;;
38567;SDS011;24338;48.280;10.970;2022-12-18T02:32:35;70.38;;;27.88;;
38567;SDS011;24338;48.280;10.970;2022-12-18T02:35:06;77.07;;;30.48;;
38567;SDS011;24338;48.280;10.970;2022-12-18T02:40:06;63.05;;;25.67;;
38567;SDS011;24338;48.280;10.970;2022-12-18T02:42:34;58.58;;;24.02;;
38567;SDS011;24338;48.280;10.970;2022-12-18T02:45:01;62.28;;;27.75;;
38567;SDS011;24338;48.280;10.970;2022-12-18T02:47:29;67.70;;;26.75;;
38567;SDS011;24338;48.280;10.970;2022-12-18T02:55:13;61.28;;;26.45;;
38567;SDS011;24338;48.280;10.970;2022-12-18T03:00:41;61.45;;;26.85;;
38567;SDS011;24338;48.280;10.970;2022-12-18T03:06:10;52.50;;;25.17;;
38567;SDS011;24338;48.280;10.970;2022-12-18T03:08:42;55.58;;;23.05;;
38567;SDS011;24338;48.280;10.970;2022-12-18T03:11:13;59.85;;;24.98;;
38567;SDS011;24338;48.280;10.970;2022-12-18T03:13:45;55.28;;;23.88;;
38567;SDS011;24338;48.280;10.970;2022-12-18T03:16:23;54.65;;;21.83;;
38567;SDS011;24338;48.280;10.970;2022-12-18T03:19:01;58.45;;;25.50;;
38567;SDS011;24338;48.280;10.970;2022-12-18T03:21:43;54.80;;;21.10;;
38567;SDS011;24338;48.280;10.970;2022-12-18T03:24:14;46.22;;;20.70;;
38567;SDS011;24338;48.280;10.970;2022-12-18T03:26:44;48.05;;;21.90;;
38567;SDS011;24338;48.280;10.970;2022-12-18T03:29:15;52.25;;;21.38;;
38567;SDS011;24338;48.280;10.970;2022-12-18T03:31:51;52.00;;;22.98;;
38567;SDS011;24338;48.280;10.970;2022-12-18T03:34:23;49.97;;;20.70;;
38567;SDS011;24338;48.280;10.970;2022-12-18T03:37:00;55.20;;;21.42;;
38567;SDS011;24338;48.280;10.970;2022-12-18T03:39:27;64.30;;;22.90;;
38567;SDS011;24338;48.280;10.970;2022-12-18T03:42:08;57.78;;;22.52;;
38567;SDS011;24338;48.280;10.970;2022-12-18T03:44:49;49.70;;;21.88;;
38567;SDS011;24338;48.280;10.970;2022-12-18T03:47:22;48.45;;;21.23;;
38567;SDS011;24338;48.280;10.970;2022-12-18T03:55:32;49.03;;;20.00;;
38567;SDS011;24338;48.280;10.970;2022-12-18T03:58:01;51.88;;;21.95;;
38567;SDS011;24338;48.280;10.970;2022-12-18T04:00:30;51.25;;;20.45;;
38567;SDS011;24338;48.280;10.970;2022-12-18T04:02:58;54.55;;;22.52;;
38567;SDS011;24338;48.280;10.970;2022-12-18T04:05:27;58.70;;;22.70;;
38567;SDS011;24338;48.280;10.970;2022-12-18T04:07:56;57.90;;;22.10;;
38567;SDS011;24338;48.280;10.970;2022-12-18T04:10:23;47.85;;;20.15;;
38567;SDS011;24338;48.280;10.970;2022-12-18T04:12:50;49.88;;;20.30;;
38567;SDS011;24338;48.280;10.970;2022-12-18T04:15:21;57.17;;;22.27;;
38567;SDS011;24338;48.280;10.970;2022-12-18T04:17:48;48.28;;;21.45;;
38567;SDS011;24338;48.280;10.970;2022-12-18T04:20:16;55.58;;;22.88;;
38567;SDS011;24338;48.280;10.970;2022-12-18T04:22:43;50.17;;;22.23;;
38567;SDS011;24338;48.280;10.970;2022-12-18T04:25:11;50.22;;;23.05;;
38567;SDS011;24338;48.280;10.970;2022-12-18T04:27:38;55.85;;;24.40;;
38567;SDS011;24338;48.280;10.970;2022-12-18T04:30:05;57.92;;;24.48;;
38567;SDS011;24338;48.280;10.970;2022-12-18T04:32:33;49.50;;;23.08;;
38567;SDS011;24338;48.280;10.970;2022-12-18T04:35:00;51.42;;;22.35;;
38567;SDS011;24338;48.280;10.970;2022-12-18T04:37:27;60.25;;;23.13;;
38567;SDS011;24338;48.280;10.970;2022-12-18T04:39:54;50.42;;;22.42;;
38567;SDS011;24338;48.280;10.970;2022-12-18T04:42:21;56.80;;;23.88;;
38567;SDS011;24338;48.280;10.970;2022-12-18T04:44:48;52.30;;;22.85;;
38567;SDS011;24338;48.280;10.970;2022-12-18T04:47:15;55.03;;;23.48;;
38567;SDS011;24338;48.280;10.970;2022-12-18T04:49:41;58.03;;;24.98;;
38567;SDS011;24338;48.280;10.970;2022-12-18T04:52:08;61.60;;;25.70;;
38567;SDS011;24338;48.280;10.970;2022-12-18T04:54:35;54.78;;;23.38;;
38567;SDS011;24338;48.280;10.970;2022-12-18T04:57:02;63.08;;;24.95;;
38567;SDS011;24338;48.280;10.970;2022-12-18T04:59:29;63.28;;;27.05;;
38567;SDS011;24338;48.280;10.970;2022-12-18T05:01:56;64.35;;;25.88;;
38567;SDS011;24338;48.280;10.970;2022-12-18T05:04:23;60.83;;;24.90;;
38567;SDS011;24338;48.280;10.970;2022-12-18T05:06:49;61.95;;;27.70;;
38567;SDS011;24338;48.280;10.970;2022-12-18T05:09:16;58.58;;;23.55;;
38567;SDS011;24338;48.280;10.970;2022-12-18T05:11:44;58.05;;;25.15;;
38567;SDS011;24338;48.280;10.970;2022-12-18T05:14:12;61.67;;;23.80;;
38567;SDS011;24338;48.280;10.970;2022-12-18T05:16:39;62.28;;;23.58;;
38567;SDS011;24338;48.280;10.970;2022-12-18T05:19:06;66.43;;;25.73;;
38567;SDS011;24338;48.280;10.970;2022-12-18T05:21:33;56.08;;;28.33;;
38567;SDS011;24338;48.280;10.970;2022-12-18T05:24:00;68.28;;;26.98;;
38567;SDS011;24338;48.280;10.970;2022-12-18T05:26:27;57.95;;;24.17;;
38567;SDS011;24338;48.280;10.970;2022-12-18T05:28:57;59.03;;;25.77;;
38567;SDS011;24338;48.280;10.970;2022-12-18T05:31:24;67.13;;;26.10;;
38567;SDS011;24338;48.280;10.970;2022-12-18T05:33:50;61.40;;;24.92;;
38567;SDS011;24338;48.280;10.970;2022-12-18T05:36:17;56.25;;;24.92;;
38567;SDS011;24338;48.280;10.970;2022-12-18T05:38:44;67.32;;;25.85;;
38567;SDS011;24338;48.280;10.970;2022-12-18T05:41:11;63.10;;;24.02;;
38567;SDS011;24338;48.280;10.970;2022-12-18T05:43:38;54.67;;;22.55;;
38567;SDS011;24338;48.280;10.970;2022-12-18T05:46:07;57.20;;;23.83;;
38567;SDS011;24338;48.280;10.970;2022-12-18T05:48:38;57.95;;;25.30;;
38567;SDS011;24338;48.280;10.970;2022-12-18T05:51:06;65.10;;;24.70;;
38567;SDS011;24338;48.280;10.970;2022-12-18T05:53:34;56.72;;;22.65;;
38567;SDS011;24338;48.280;10.970;2022-12-18T05:56:03;51.25;;;22.88;;
38567;SDS011;24338;48.280;10.970;2022-12-18T05:58:31;61.53;;;25.33;;
38567;SDS011;24338;48.280;10.970;2022-12-18T06:01:05;57.70;;;23.40;;
38567;SDS011;24338;48.280;10.970;2022-12-18T06:03:37;57.10;;;23.55;;
38567;SDS011;24338;48.280;10.970;2022-12-18T06:06:12;58.28;;;23.75;;
38567;SDS011;24338;48.280;10.970;2022-12-18T06:08:40;53.15;;;22.30;;
38567;SDS011;24338;48.280;10.970;2022-12-18T06:11:11;58.78;;;24.77;;
38567;SDS011;24338;48.280;10.970;2022-12-18T06:13:39;53.55;;;23.85;;
38567;SDS011;24338;48.280;10.970;2022-12-18T06:16:06;58.28;;;23.27;;
38567;SDS011;24338;48.280;10.970;2022-12-18T06:18:34;56.92;;;24.80;;
38567;SDS011;24338;48.280;10.970;2022-12-18T06:21:01;59.63;;;23.45;;
38567;SDS011;24338;48.280;10.970;2022-12-18T06:23:28;50.00;;;23.35;;
38567;SDS011;24338;48.280;10.970;2022-12-18T06:25:55;59.22;;;22.65;;
38567;SDS011;24338;48.280;10.970;2022-12-18T06:28:21;47.35;;;21.30;;
38567;SDS011;24338;48.280;10.970;2022-12-18T06:30:48;55.83;;;23.33;;
38567;SDS011;24338;48.280;10.970;2022-12-18T06:33:15;62.40;;;24.25;;
38567;SDS011;24338;48.280;10.970;2022-12-18T06:35:42;60.40;;;24.73;;
38567;SDS011;24338;48.280;10.970;2022-12-18T06:38:09;49.17;;;21.45;;
38567;SDS011;24338;48.280;10.970;2022-12-18T06:40:37;57.90;;;24.45;;
38567;SDS011;24338;48.280;10.970;2022-12-18T06:43:05;54.13;;;23.55;;
38567;SDS011;24338;48.280;10.970;2022-12-18T06:45:32;60.78;;;25.58;;
38567;SDS011;24338;48.280;10.970;2022-12-18T06:47:59;57.20;;;25.40;;
38567;SDS011;24338;48.280;10.970;2022-12-18T06:50:26;61.20;;;23.23;;
38567;SDS011;24338;48.280;10.970;2022-12-18T06:52:53;50.83;;;24.45;;
38567;SDS011;24338;48.280;10.970;2022-12-18T06:55:20;51.38;;;21.55;;
38567;SDS011;24338;48.280;10.970;2022-12-18T06:57:47;49.97;;;22.65;;
38567;SDS011;24338;48.280;10.970;2022-12-18T07:00:14;47.53;;;20.95;;
38567;SDS011;24338;48.280;10.970;2022-12-18T07:02:40;51.75;;;22.63;;
38567;SDS011;24338;48.280;10.970;2022-12-18T07:05:08;54.25;;;22.30;;
38567;SDS011;24338;48.280;10.970;2022-12-18T07:07:36;49.72;;;21.05;;
38567;SDS011;24338;48.280;10.970;2022-12-18T07:10:03;55.30;;;23.05;;
38567;SDS011;24338;48.280;10.970;2022-12-18T07:12:30;49.20;;;21.60;;
38567;SDS011;24338;48.280;10.970;2022-12-18T07:14:57;52.42;;;20.55;;
38567;SDS011;24338;48.280;10.970;2022-12-18T07:17:24;48.47;;;21.80;;
38567;SDS011;24338;48.280;10.970;2022-12-18T07:19:51;57.25;;;22.58;;
38567;SDS011;24338;48.280;10.970;2022-12-18T07:22:17;45.97;;;21.77;;
38567;SDS011;24338;48.280;10.970;2022-12-18T07:24:44;49.75;;;23.70;;
38567;SDS011;24338;48.280;10.970;2022-12-18T07:27:12;52.45;;;23.25;;
38567;SDS011;24338;48.280;10.970;2022-12-18T07:29:38;52.28;;;22.33;;
38567;SDS011;24338;48.280;10.970;2022-12-18T07:32:05;52.28;;;23.58;;
38567;SDS011;24338;48.280;10.970;2022-12-18T07:34:33;51.50;;;22.67;;
38567;SDS011;24338;48.280;10.970;2022-12-18T07:37:01;48.45;;;23.80;;
38567;SDS011;24338;48.280;10.970;2022-12-18T07:39:28;56.53;;;23.80;;
38567;SDS011;24338;48.280;10.970;2022-12-18T07:41:55;56.75;;;25.42;;
38567;SDS011;24338;48.280;10.970;2022-12-18T07:44:40;54.85;;;24.55;;
38567;SDS011;24338;48.280;10.970;2022-12-18T07:47:07;56.88;;;23.83;;
38567;SDS011;24338;48.280;10.970;2022-12-18T07:49:37;50.53;;;24.17;;
38567;SDS011;24338;48.280;10.970;2022-12-18T07:52:04;53.42;;;21.38;;
38567;SDS011;24338;48.280;10.970;2022-12-18T07:54:31;53.13;;;22.58;;
38567;SDS011;24338;48.280;10.970;2022-12-18T07:56:57;50.17;;;20.80;;
38567;SDS011;24338;48.280;10.970;2022-12-18T07:59:25;48.35;;;20.88;;
38567;SDS011;24338;48.280;10.970;2022-12-18T08:01:52;50.67;;;22.23;;
38567;SDS011;24338;48.280;10.970;2022-12-18T08:04:19;47.30;;;21.77;;
38567;SDS011;24338;48.280;10.970;2022-12-18T08:06:46;46.22;;;20.17;;
38567;SDS011;24338;48.280;10.970;2022-12-18T08:09:13;51.90;;;22.88;;
38567;SDS011;24338;48.280;10.970;2022-12-18T08:11:40;46.90;;;21.35;;
38567;SDS011;24338;48.280;10.970;2022-12-18T08:14:07;45.22;;;21.08;;
38567;SDS011;24338;48.280;10.970;2022-12-18T08:16:34;48.83;;;22.20;;
38567;SDS011;24338;48.280;10.970;2022-12-18T08:19:01;46.80;;;21.75;;
38567;SDS011;24338;48.280;10.970;2022-12-18T08:21:29;46.85;;;23.05;;
38567;SDS011;24338;48.280;10.970;2022-12-18T08:23:58;49.42;;;21.92;;
38567;SDS011;24338;48.280;10.970;2022-12-18T08:26:28;51.35;;;23.33;;
38567;SDS011;24338;48.280;10.970;2022-12-18T08:28:56;45.85;;;21.98;;
38567;SDS011;24338;48.280;10.970;2022-12-18T08:31:24;47.63;;;20.95;;
38567;SDS011;24338;48.280;10.970;2022-12-18T08:33:53;50.42;;;22.48;;
38567;SDS011;24338;48.280;10.970;2022-12-18T08:36:20;44.65;;;21.27;;
38567;SDS011;24338;48.280;10.970;2022-12-18T08:38:49;50.08;;;22.55;;
38567;SDS011;24338;48.280;10.970;2022-12-18T08:41:17;50.03;;;22.00;;
38567;SDS011;24338;48.280;10.970;2022-12-18T08:43:44;46.35;;;21.60;;
38567;SDS011;24338;48.280;10.970;2022-12-18T08:46:37;46.83;;;22.60;;
38567;SDS011;24338;48.280;10.970;2022-12-18T08:49:06;43.20;;;20.63;;
38567;SDS011;24338;48.280;10.970;2022-12-18T08:51:33;50.75;;;23.83;;
38567;SDS011;24338;48.280;10.970;2022-12-18T08:54:02;42.80;;;21.17;;
38567;SDS011;24338;48.280;10.970;2022-12-18T08:56:31;51.58;;;22.83;;
38567;SDS011;24338;48.280;10.970;2022-12-18T08:58:59;50.80;;;23.80;;
38567;SDS011;24338;48.280;10.970;2022-12-18T09:01:26;60.17;;;26.92;;
38567;SDS011;24338;48.280;10.970;2022-12-18T09:03:53;45.30;;;21.95;;
38567;SDS011;24338;48.280;10.970;2022-12-18T09:06:20;48.42;;;20.23;;
38567;SDS011;24338;48.280;10.970;2022-12-18T09:08:48;44.50;;;20.35;;
38567;SDS011;24338;48.280;10.970;2022-12-18T09:11:22;45.50;;;21.55;;
38567;SDS011;24338;48.280;10.970;2022-12-18T09:13:52;41.53;;;20.67;;
38567;SDS011;24338;48.280;10.970;2022-12-18T09:16:20;39.53;;;20.83;;
38567;SDS011;24338;48.280;10.970;2022-12-18T09:18:55;43.03;;;18.60;;
38567;SDS011;24338;48.280;10.970;2022-12-18T09:23:54;37.97;;;19.67;;
38567;SDS011;24338;48.280;10.970;2022-12-18T09:26:22;44.70;;;22.58;;
38567;SDS011;24338;48.280;10.970;2022-12-18T09:28:50;41.50;;;21.08;;
38567;SDS011;24338;48.280;10.970;2022-12-18T09:31:18;43.97;;;18.85;;
38567;SDS011;24338;48.280;10.970;2022-12-18T09:33:47;43.28;;;20.23;;
38567;SDS011;24338;48.280;10.970;2022-12-18T09:36:15;41.88;;;20.73;;
38567;SDS011;24338;48.280;10.970;2022-12-18T09:38:43;40.70;;;20.30;;
38567;SDS011;24338;48.280;10.970;2022-12-18T09:41:17;41.97;;;20.30;;
38567;SDS011;24338;48.280;10.970;2022-12-18T09:44:00;44.55;;;18.92;;
38567;SDS011;24338;48.280;10.970;2022-12-18T09:46:35;40.72;;;19.92;;
38567;SDS011;24338;48.280;10.970;2022-12-18T09:49:09;44.72;;;19.42;;
38567;SDS011;24338;48.280;10.970;2022-12-18T09:51:51;40.78;;;18.83;;
38567;SDS011;24338;48.280;10.970;2022-12-18T09:54:26;42.13;;;20.58;;
38567;SDS011;24338;48.280;10.970;2022-12-18T09:56:59;43.90;;;19.58;;
38567;SDS011;24338;48.280;10.970;2022-12-18T09:59:38;40.60;;;18.27;;
38567;SDS011;24338;48.280;10.970;2022-12-18T10:02:26;41.33;;;20.30;;
38567;SDS011;24338;48.280;10.970;2022-12-18T10:05:04;39.38;;;19.00;;
38567;SDS011;24338;48.280;10.970;2022-12-18T10:10:36;47.95;;;21.95;;
38567;SDS011;24338;48.280;10.970;2022-12-18T10:21:20;40.33;;;19.42;;
38567;SDS011;24338;48.280;10.970;2022-12-18T10:24:04;38.85;;;19.50;;
38567;SDS011;24338;48.280;10.970;2022-12-18T10:26:48;39.28;;;17.92;;
38567;SDS011;24338;48.280;10.970;2022-12-18T10:29:15;40.63;;;19.17;;
38567;SDS011;24338;48.280;10.970;2022-12-18T10:31:42;39.58;;;17.80;;
38567;SDS011;24338;48.280;10.970;2022-12-18T10:34:10;39.42;;;20.58;;
38567;SDS011;24338;48.280;10.970;2022-12-18T10:36:38;35.55;;;18.05;;
38567;SDS011;24338;48.280;10.970;2022-12-18T10:39:18;38.83;;;18.92;;
38567;SDS011;24338;48.280;10.970;2022-12-18T10:41:52;38.40;;;19.80;;
38567;SDS011;24338;48.280;10.970;2022-12-18T10:44:39;39.65;;;18.13;;
38567;SDS011;24338;48.280;10.970;2022-12-18T10:47:06;41.45;;;19.02;;
38567;SDS011;24338;48.280;10.970;2022-12-18T10:49:42;43.17;;;21.20;;
38567;SDS011;24338;48.280;10.970;2022-12-18T10:52:23;34.63;;;18.35;;
38567;SDS011;24338;48.280;10.970;2022-12-18T10:54:55;31.98;;;17.17;;
38567;SDS011;24338;48.280;10.970;2022-12-18T10:57:40;34.08;;;19.20;;
38567;SDS011;24338;48.280;10.970;2022-12-18T11:00:24;36.20;;;19.08;;
38567;SDS011;24338;48.280;10.970;2022-12-18T11:02:56;40.53;;;20.58;;
38567;SDS011;24338;48.280;10.970;2022-12-18T11:07:57;37.95;;;18.38;;
38567;SDS011;24338;48.280;10.970;2022-12-18T11:10:32;38.22;;;20.40;;
38567;SDS011;24338;48.280;10.970;2022-12-18T11:13:20;37.13;;;18.75;;
38567;SDS011;24338;48.280;10.970;2022-12-18T11:15:49;38.65;;;19.38;;
38567;SDS011;24338;48.280;10.970;2022-12-18T11:18:17;39.33;;;19.17;;
38567;SDS011;24338;48.280;10.970;2022-12-18T11:20:52;38.25;;;19.17;;
38567;SDS011;24338;48.280;10.970;2022-12-18T11:23:24;39.35;;;19.63;;
38567;SDS011;24338;48.280;10.970;2022-12-18T11:26:02;39.05;;;19.92;;
38567;SDS011;24338;48.280;10.970;2022-12-18T11:28:49;34.40;;;17.58;;
38567;SDS011;24338;48.280;10.970;2022-12-18T11:36:54;39.28;;;20.25;;
38567;SDS011;24338;48.280;10.970;2022-12-18T11:39:31;33.30;;;18.27;;
38567;SDS011;24338;48.280;10.970;2022-12-18T11:45:25;35.85;;;18.27;;
38567;SDS011;24338;48.280;10.970;2022-12-18T11:47:51;39.30;;;18.63;;
38567;SDS011;24338;48.280;10.970;2022-12-18T11:53:19;37.85;;;18.55;;
38567;SDS011;24338;48.280;10.970;2022-12-18T11:56:01;34.95;;;18.15;;
38567;SDS011;24338;48.280;10.970;2022-12-18T12:13:23;39.42;;;20.55;;
38567;SDS011;24338;48.280;10.970;2022-12-18T12:16:17;46.15;;;19.80;;
38567;SDS011;24338;48.280;10.970;2022-12-18T12:21:41;43.60;;;18.25;;
38567;SDS011;24338;48.280;10.970;2022-12-18T12:38:28;39.03;;;18.85;;
38567;SDS011;24338;48.280;10.970;2022-12-18T12:41:18;42.10;;;20.70;;
38567;SDS011;24338;48.280;10.970;2022-12-18T12:44:13;40.60;;;19.77;;
38567;SDS011;24338;48.280;10.970;2022-12-18T12:46:45;40.55;;;20.30;;
38567;SDS011;24338;48.280;10.970;2022-12-18T12:49:15;37.13;;;17.45;;
38567;SDS011;24338;48.280;10.970;2022-12-18T12:51:45;40.80;;;21.02;;
38567;SDS011;24338;48.280;10.970;2022-12-18T12:54:21;42.15;;;19.88;;
38567;SDS011;24338;48.280;10.970;2022-12-18T12:56:52;43.53;;;21.23;;
38567;SDS011;24338;48.280;10.970;2022-12-18T13:02:21;40.45;;;20.58;;
38567;SDS011;24338;48.280;10.970;2022-12-18T13:12:52;39.30;;;21.52;;
38567;SDS011;24338;48.280;10.970;2022-12-18T13:23:50;42.00;;;21.13;;
38567;SDS011;24338;48.280;10.970;2022-12-18T13:28:53;44.22;;;20.95;;
38567;SDS011;24338;48.280;10.970;2022-12-18T13:34:18;44.70;;;21.15;;
38567;SDS011;24338;48.280;10.970;2022-12-18T13:36:53;42.53;;;20.65;;
38567;SDS011;24338;48.280;10.970;2022-12-18T13:44:39;47.03;;;23.35;;
38567;SDS011;24338;48.280;10.970;2022-12-18T13:47:41;50.60;;;24.02;;
38567;SDS011;24338;48.280;10.970;2022-12-18T13:50:20;45.30;;;21.00;;
38567;SDS011;24338;48.280;10.970;2022-12-18T13:53:01;41.50;;;20.27;;
38567;SDS011;24338;48.280;10.970;2022-12-18T13:55:31;41.03;;;21.25;;
38567;SDS011;24338;48.280;10.970;2022-12-18T13:58:05;42.10;;;18.70;;
38567;SDS011;24338;48.280;10.970;2022-12-18T14:00:32;40.22;;;20.13;;
38567;SDS011;24338;48.280;10.970;2022-12-18T14:03:00;43.28;;;21.33;;
38567;SDS011;24338;48.280;10.970;2022-12-18T14:05:31;37.47;;;19.33;;
38567;SDS011;24338;48.280;10.970;2022-12-18T14:08:11;40.08;;;19.63;;
38567;SDS011;24338;48.280;10.970;2022-12-18T14:10:41;43.10;;;21.83;;
38567;SDS011;24338;48.280;10.970;2022-12-18T14:13:35;38.75;;;20.58;;
38567;SDS011;24338;48.280;10.970;2022-12-18T14:16:06;37.50;;;18.98;;
38567;SDS011;24338;48.280;10.970;2022-12-18T14:21:32;43.53;;;21.90;;
38567;SDS011;24338;48.280;10.970;2022-12-18T14:26:31;44.13;;;18.92;;
38567;SDS011;24338;48.280;10.970;2022-12-18T14:32:17;36.95;;;17.88;;
38567;SDS011;24338;48.280;10.970;2022-12-18T14:34:49;40.58;;;18.65;;
38567;SDS011;24338;48.280;10.970;2022-12-18T14:37:21;47.53;;;23.58;;
38567;SDS011;24338;48.280;10.970;2022-12-18T14:42:27;46.13;;;20.27;;
38567;SDS011;24338;48.280;10.970;2022-12-18T14:48:17;41.80;;;19.97;;
38567;SDS011;24338;48.280;10.970;2022-12-18T14:50:59;48.25;;;23.30;;
38567;SDS011;24338;48.280;10.970;2022-12-18T14:53:40;51.17;;;24.33;;
38567;SDS011;24338;48.280;10.970;2022-12-18T14:56:21;47.47;;;24.38;;
38567;SDS011;24338;48.280;10.970;2022-12-18T14:59:02;49.35;;;24.13;;
38567;SDS011;24338;48.280;10.970;2022-12-18T15:01:32;51.25;;;24.85;;
38567;SDS011;24338;48.280;10.970;2022-12-18T15:04:01;52.03;;;24.00;;
38567;SDS011;24338;48.280;10.970;2022-12-18T15:09:06;52.78;;;24.45;;
38567;SDS011;24338;48.280;10.970;2022-12-18T15:11:55;56.30;;;26.40;;
38567;SDS011;24338;48.280;10.970;2022-12-18T15:16:57;59.70;;;27.35;;
38567;SDS011;24338;48.280;10.970;2022-12-18T15:19:34;61.88;;;27.23;;
38567;SDS011;24338;48.280;10.970;2022-12-18T15:22:11;51.03;;;25.35;;
38567;SDS011;24338;48.280;10.970;2022-12-18T15:24:51;48.60;;;24.42;;
38567;SDS011;24338;48.280;10.970;2022-12-18T15:27:22;57.65;;;25.33;;
38567;SDS011;24338;48.280;10.970;2022-12-18T15:32:35;45.83;;;22.85;;
38567;SDS011;24338;48.280;10.970;2022-12-18T15:37:50;50.05;;;22.55;;
38567;SDS011;24338;48.280;10.970;2022-12-18T15:40:21;54.22;;;24.20;;
38567;SDS011;24338;48.280;10.970;2022-12-18T15:42:51;52.17;;;24.33;;
38567;SDS011;24338;48.280;10.970;2022-12-18T15:45:39;50.15;;;25.08;;
38567;SDS011;24338;48.280;10.970;2022-12-18T15:48:18;57.42;;;25.83;;
38567;SDS011;24338;48.280;10.970;2022-12-18T15:50:50;57.75;;;26.90;;
38567;SDS011;24338;48.280;10.970;2022-12-18T15:53:18;56.72;;;26.42;;
38567;SDS011;24338;48.280;10.970;2022-12-18T15:55:45;51.60;;;24.98;;
38567;SDS011;24338;48.280;10.970;2022-12-18T15:58:31;54.58;;;26.45;;
38567;SDS011;24338;48.280;10.970;2022-12-18T16:00:59;49.83;;;23.35;;
38567;SDS011;24338;48.280;10.970;2022-12-18T16:03:27;56.60;;;25.92;;
38567;SDS011;24338;48.280;10.970;2022-12-18T16:05:54;54.55;;;27.27;;
38567;SDS011;24338;48.280;10.970;2022-12-18T16:08:22;60.00;;;26.75;;
38567;SDS011;24338;48.280;10.970;2022-12-18T16:10:49;53.97;;;27.63;;
38567;SDS011;24338;48.280;10.970;2022-12-18T16:13:16;58.72;;;26.77;;
38567;SDS011;24338;48.280;10.970;2022-12-18T16:15:45;51.47;;;28.20;;
38567;SDS011;24338;48.280;10.970;2022-12-18T16:18:12;50.47;;;22.17;;
38567;SDS011;24338;48.280;10.970;2022-12-18T16:20:39;54.55;;;25.92;;
38567;SDS011;24338;48.280;10.970;2022-12-18T16:23:06;53.10;;;24.05;;
38567;SDS011;24338;48.280;10.970;2022-12-18T16:25:33;50.03;;;24.67;;
38567;SDS011;24338;48.280;10.970;2022-12-18T16:28:00;54.42;;;26.88;;
38567;SDS011;24338;48.280;10.970;2022-12-18T16:30:28;52.90;;;28.02;;
38567;SDS011;24338;48.280;10.970;2022-12-18T16:33:03;52.90;;;23.48;;
38567;SDS011;24338;48.280;10.970;2022-12-18T16:35:32;48.28;;;24.08;;
38567;SDS011;24338;48.280;10.970;2022-12-18T16:38:00;48.47;;;24.02;;
38567;SDS011;24338;48.280;10.970;2022-12-18T16:40:27;56.38;;;26.15;;
38567;SDS011;24338;48.280;10.970;2022-12-18T16:42:53;50.42;;;27.35;;
38567;SDS011;24338;48.280;10.970;2022-12-18T16:45:20;53.70;;;25.38;;
38567;SDS011;24338;48.280;10.970;2022-12-18T16:47:47;50.15;;;23.88;;
38567;SDS011;24338;48.280;10.970;2022-12-18T16:50:14;54.85;;;26.13;;
38567;SDS011;24338;48.280;10.970;2022-12-18T16:52:41;52.97;;;24.55;;
38567;SDS011;24338;48.280;10.970;2022-12-18T16:55:08;49.97;;;22.80;;
38567;SDS011;24338;48.280;10.970;2022-12-18T16:57:35;43.95;;;21.13;;
38567;SDS011;24338;48.280;10.970;2022-12-18T17:00:02;49.95;;;24.63;;
38567;SDS011;24338;48.280;10.970;2022-12-18T17:02:31;50.92;;;24.75;;
38567;SDS011;24338;48.280;10.970;2022-12-18T17:04:59;53.53;;;27.67;;
38567;SDS011;24338;48.280;10.970;2022-12-18T17:07:27;46.72;;;24.50;;